sensor_id;sensor_type;location;lat;lon;timestamp;pressure;altitude;pressure_sealevel;temperature;humidity
23427;BME280;41148;45.420;10.952;2023-04-22T00:00:55;100622.78;;;13.02;81.21
23427;BME280;41148;45.420;10.952;2023-04-22T00:03:22;100626.16;;;13.07;81.19
23427;BME280;41148;45.420;10.952;2023-04-22T00:05:50;100626.34;;;13.03;81.01
23427;BME280;41148;45.420;10.952;2023-04-22T00:08:18;100630.19;;;12.96;81.20
23427;BME280;41148;45.420;10.952;2023-04-22T00:10:45;100630.91;;;12.99;81.58
23427;BME280;41148;45.420;10.952;2023-04-22T00:13:12;100625.44;;;13.02;80.92
23427;BME280;41148;45.420;10.952;2023-04-22T00:15:40;100621.59;;;13.09;80.48
23427;BME280;41148;45.420;10.952;2023-04-22T00:18:07;100629.81;;;13.05;80.39
23427;BME280;41148;45.420;10.952;2023-04-22T00:20:41;100622.97;;;12.98;81.03
23427;BME280;41148;45.420;10.952;2023-04-22T00:23:10;100622.31;;;12.91;81.30
23427;BME280;41148;45.420;10.952;2023-04-22T00:25:39;100619.56;;;12.94;81.41
23427;BME280;41148;45.420;10.952;2023-04-22T00:28:06;100624.91;;;12.94;81.33
23427;BME280;41148;45.420;10.952;2023-04-22T00:30:34;100615.16;;;12.92;81.82
23427;BME280;41148;45.420;10.952;2023-04-22T00:33:02;100618.03;;;12.87;81.92
23427;BME280;41148;45.420;10.952;2023-04-22T00:35:30;100620.88;;;12.82;82.63
23427;BME280;41148;45.420;10.952;2023-04-22T00:38:06;100618.00;;;12.65;83.33
23427;BME280;41148;45.420;10.952;2023-04-22T00:40:34;100618.72;;;12.69;83.10
23427;BME280;41148;45.420;10.952;2023-04-22T00:43:01;100626.63;;;12.72;83.19
23427;BME280;41148;45.420;10.952;2023-04-22T00:45:29;100616.06;;;12.69;82.66
23427;BME280;41148;45.420;10.952;2023-04-22T00:47:57;100615.88;;;12.73;82.50
23427;BME280;41148;45.420;10.952;2023-04-22T00:50:25;100618.38;;;12.78;82.45
23427;BME280;41148;45.420;10.952;2023-04-22T00:52:54;100608.63;;;12.77;82.61
23427;BME280;41148;45.420;10.952;2023-04-22T00:55:22;100616.66;;;12.77;82.88
23427;BME280;41148;45.420;10.952;2023-04-22T00:57:50;100631.88;;;12.75;82.15
23427;BME280;41148;45.420;10.952;2023-04-22T01:00:18;100624.66;;;12.77;82.37
23427;BME280;41148;45.420;10.952;2023-04-22T01:02:46;100622.28;;;12.69;81.97
23427;BME280;41148;45.420;10.952;2023-04-22T01:05:14;100628.28;;;12.76;82.01
23427;BME280;41148;45.420;10.952;2023-04-22T01:07:42;100615.13;;;12.70;81.93
23427;BME280;41148;45.420;10.952;2023-04-22T01:10:10;100636.22;;;12.77;82.18
23427;BME280;41148;45.420;10.952;2023-04-22T01:12:37;100622.50;;;12.63;83.09
23427;BME280;41148;45.420;10.952;2023-04-22T01:15:05;100620.81;;;12.60;83.08
23427;BME280;41148;45.420;10.952;2023-04-22T01:17:33;100630.03;;;12.52;83.74
23427;BME280;41148;45.420;10.952;2023-04-22T01:20:01;100626.38;;;12.54;84.03
23427;BME280;41148;45.420;10.952;2023-04-22T01:22:34;100618.41;;;12.53;83.59
23427;BME280;41148;45.420;10.952;2023-04-22T01:25:03;100634.91;;;12.64;83.27
23427;BME280;41148;45.420;10.952;2023-04-22T01:27:30;100627.97;;;12.60;83.15
23427;BME280;41148;45.420;10.952;2023-04-22T01:29:58;100621.88;;;12.56;82.87
23427;BME280;41148;45.420;10.952;2023-04-22T01:32:26;100633.69;;;12.74;82.32
23427;BME280;41148;45.420;10.952;2023-04-22T01:34:57;100625.75;;;12.71;81.96
23427;BME280;41148;45.420;10.952;2023-04-22T01:37:25;100624.81;;;12.72;82.51
23427;BME280;41148;45.420;10.952;2023-04-22T01:39:53;100629.34;;;12.70;83.12
23427;BME280;41148;45.420;10.952;2023-04-22T01:42:21;100629.56;;;12.66;83.19
23427;BME280;41148;45.420;10.952;2023-04-22T01:44:48;100619.81;;;12.63;83.42
23427;BME280;41148;45.420;10.952;2023-04-22T01:47:16;100620.66;;;12.65;83.63
23427;BME280;41148;45.420;10.952;2023-04-22T01:49:43;100622.56;;;12.61;84.08
23427;BME280;41148;45.420;10.952;2023-04-22T01:52:11;100624.22;;;12.64;83.88
23427;BME280;41148;45.420;10.952;2023-04-22T01:54:39;100624.41;;;12.59;83.92
23427;BME280;41148;45.420;10.952;2023-04-22T01:57:11;100616.81;;;12.49;83.81
23427;BME280;41148;45.420;10.952;2023-04-22T01:59:40;100618.22;;;12.34;84.22
23427;BME280;41148;45.420;10.952;2023-04-22T02:02:08;100618.81;;;12.42;83.86
23427;BME280;41148;45.420;10.952;2023-04-22T02:04:36;100617.56;;;12.52;83.37
23427;BME280;41148;45.420;10.952;2023-04-22T02:07:05;100618.03;;;12.64;82.37
23427;BME280;41148;45.420;10.952;2023-04-22T02:09:37;100615.34;;;12.64;81.99
23427;BME280;41148;45.420;10.952;2023-04-22T02:12:06;100622.47;;;12.65;82.01
23427;BME280;41148;45.420;10.952;2023-04-22T02:14:33;100619.25;;;12.55;82.56
23427;BME280;41148;45.420;10.952;2023-04-22T02:17:02;100620.88;;;12.59;82.79
23427;BME280;41148;45.420;10.952;2023-04-22T02:19:30;100623.28;;;12.42;83.94
23427;BME280;41148;45.420;10.952;2023-04-22T02:21:57;100616.34;;;12.38;84.69
23427;BME280;41148;45.420;10.952;2023-04-22T02:24:25;100628.75;;;12.39;85.13
23427;BME280;41148;45.420;10.952;2023-04-22T02:26:53;100622.69;;;12.33;85.02
23427;BME280;41148;45.420;10.952;2023-04-22T02:29:20;100631.03;;;12.49;84.65
23427;BME280;41148;45.420;10.952;2023-04-22T02:31:48;100618.53;;;12.50;84.96
23427;BME280;41148;45.420;10.952;2023-04-22T02:34:15;100622.75;;;12.57;84.46
23427;BME280;41148;45.420;10.952;2023-04-22T02:36:43;100615.88;;;12.50;84.64
23427;BME280;41148;45.420;10.952;2023-04-22T02:39:11;100608.06;;;12.44;85.20
23427;BME280;41148;45.420;10.952;2023-04-22T02:41:38;100619.94;;;12.37;85.68
23427;BME280;41148;45.420;10.952;2023-04-22T02:44:06;100614.13;;;12.24;86.55
23427;BME280;41148;45.420;10.952;2023-04-22T02:46:34;100608.75;;;12.25;86.21
23427;BME280;41148;45.420;10.952;2023-04-22T02:49:01;100618.19;;;12.36;86.03
23427;BME280;41148;45.420;10.952;2023-04-22T02:51:29;100611.03;;;12.36;86.19
23427;BME280;41148;45.420;10.952;2023-04-22T02:53:57;100601.25;;;12.35;85.34
23427;BME280;41148;45.420;10.952;2023-04-22T02:56:24;100600.44;;;12.33;85.55
23427;BME280;41148;45.420;10.952;2023-04-22T02:58:53;100613.28;;;12.23;86.49
23427;BME280;41148;45.420;10.952;2023-04-22T03:01:20;100604.44;;;12.21;86.37
23427;BME280;41148;45.420;10.952;2023-04-22T03:03:48;100602.81;;;12.17;86.95
23427;BME280;41148;45.420;10.952;2023-04-22T03:06:21;100608.72;;;12.27;86.63
23427;BME280;41148;45.420;10.952;2023-04-22T03:08:48;100603.31;;;12.28;86.63
23427;BME280;41148;45.420;10.952;2023-04-22T03:11:16;100616.72;;;12.27;86.04
23427;BME280;41148;45.420;10.952;2023-04-22T03:13:43;100601.66;;;12.24;86.72
23427;BME280;41148;45.420;10.952;2023-04-22T03:16:11;100608.25;;;12.39;86.31
23427;BME280;41148;45.420;10.952;2023-04-22T03:18:39;100609.47;;;12.30;87.01
23427;BME280;41148;45.420;10.952;2023-04-22T03:21:06;100605.16;;;12.26;86.72
23427;BME280;41148;45.420;10.952;2023-04-22T03:23:34;100600.03;;;12.20;86.42
23427;BME280;41148;45.420;10.952;2023-04-22T03:26:02;100588.75;;;12.12;86.33
23427;BME280;41148;45.420;10.952;2023-04-22T03:28:29;100618.47;;;12.28;86.53
23427;BME280;41148;45.420;10.952;2023-04-22T03:30:57;100610.19;;;12.11;86.99
23427;BME280;41148;45.420;10.952;2023-04-22T03:33:24;100613.72;;;12.11;87.04
23427;BME280;41148;45.420;10.952;2023-04-22T03:36:02;100605.75;;;12.10;87.17
23427;BME280;41148;45.420;10.952;2023-04-22T03:38:29;100600.31;;;12.13;86.46
23427;BME280;41148;45.420;10.952;2023-04-22T03:40:57;100608.31;;;12.13;86.46
23427;BME280;41148;45.420;10.952;2023-04-22T03:43:36;100603.69;;;12.18;86.26
23427;BME280;41148;45.420;10.952;2023-04-22T03:46:07;100599.22;;;12.18;86.06
23427;BME280;41148;45.420;10.952;2023-04-22T03:48:39;100595.47;;;11.99;86.21
23427;BME280;41148;45.420;10.952;2023-04-22T03:51:12;100600.91;;;11.96;87.13
23427;BME280;41148;45.420;10.952;2023-04-22T03:53:40;100599.47;;;11.86;87.91
23427;BME280;41148;45.420;10.952;2023-04-22T03:56:11;100609.78;;;11.96;88.04
23427;BME280;41148;45.420;10.952;2023-04-22T03:58:43;100600.81;;;11.99;88.10
23427;BME280;41148;45.420;10.952;2023-04-22T04:01:11;100598.13;;;11.99;87.51
23427;BME280;41148;45.420;10.952;2023-04-22T04:03:41;100605.69;;;11.86;87.92
23427;BME280;41148;45.420;10.952;2023-04-22T04:06:10;100607.22;;;11.93;88.18
23427;BME280;41148;45.420;10.952;2023-04-22T04:08:37;100602.69;;;11.95;87.97
23427;BME280;41148;45.420;10.952;2023-04-22T04:11:07;100607.19;;;11.68;89.30
23427;BME280;41148;45.420;10.952;2023-04-22T04:13:34;100606.06;;;11.74;89.55
23427;BME280;41148;45.420;10.952;2023-04-22T04:16:13;100613.59;;;11.89;88.42
23427;BME280;41148;45.420;10.952;2023-04-22T04:18:43;100617.16;;;11.90;88.87
23427;BME280;41148;45.420;10.952;2023-04-22T04:21:12;100601.66;;;11.73;89.36
23427;BME280;41148;45.420;10.952;2023-04-22T04:23:46;100589.31;;;11.70;89.17
23427;BME280;41148;45.420;10.952;2023-04-22T04:26:14;100602.94;;;11.89;89.08
23427;BME280;41148;45.420;10.952;2023-04-22T04:28:46;100603.94;;;11.85;88.83
23427;BME280;41148;45.420;10.952;2023-04-22T04:31:16;100611.34;;;11.75;89.19
23427;BME280;41148;45.420;10.952;2023-04-22T04:33:44;100599.81;;;11.75;89.27
23427;BME280;41148;45.420;10.952;2023-04-22T04:36:13;100606.66;;;11.84;89.08
23427;BME280;41148;45.420;10.952;2023-04-22T04:38:42;100613.59;;;11.89;89.14
23427;BME280;41148;45.420;10.952;2023-04-22T04:41:09;100608.31;;;11.88;89.33
23427;BME280;41148;45.420;10.952;2023-04-22T04:43:37;100614.09;;;12.00;88.92
23427;BME280;41148;45.420;10.952;2023-04-22T04:46:22;100614.47;;;11.90;89.13
23427;BME280;41148;45.420;10.952;2023-04-22T04:48:50;100618.81;;;11.92;89.16
23427;BME280;41148;45.420;10.952;2023-04-22T04:51:20;100604.78;;;11.87;89.49
23427;BME280;41148;45.420;10.952;2023-04-22T04:53:52;100612.25;;;12.02;89.16
23427;BME280;41148;45.420;10.952;2023-04-22T04:56:19;100620.91;;;12.09;88.50
23427;BME280;41148;45.420;10.952;2023-04-22T04:58:47;100612.97;;;12.08;88.84
23427;BME280;41148;45.420;10.952;2023-04-22T05:01:18;100608.59;;;12.05;88.47
23427;BME280;41148;45.420;10.952;2023-04-22T05:03:47;100607.56;;;12.09;88.13
23427;BME280;41148;45.420;10.952;2023-04-22T05:06:17;100618.84;;;12.17;87.57
23427;BME280;41148;45.420;10.952;2023-04-22T05:08:49;100598.88;;;12.02;87.78
23427;BME280;41148;45.420;10.952;2023-04-22T05:11:17;100616.66;;;12.03;88.27
23427;BME280;41148;45.420;10.952;2023-04-22T05:13:48;100615.72;;;12.04;87.45
23427;BME280;41148;45.420;10.952;2023-04-22T05:16:21;100614.59;;;12.12;87.61
23427;BME280;41148;45.420;10.952;2023-04-22T05:18:49;100626.53;;;12.26;87.85
23427;BME280;41148;45.420;10.952;2023-04-22T05:21:16;100623.03;;;12.24;88.07
23427;BME280;41148;45.420;10.952;2023-04-22T05:23:44;100630.03;;;12.28;86.89
23427;BME280;41148;45.420;10.952;2023-04-22T05:26:13;100624.81;;;12.24;86.85
23427;BME280;41148;45.420;10.952;2023-04-22T05:28:42;100624.69;;;12.28;86.84
23427;BME280;41148;45.420;10.952;2023-04-22T05:31:10;100626.34;;;12.31;86.92
23427;BME280;41148;45.420;10.952;2023-04-22T05:33:37;100629.91;;;12.31;86.25
23427;BME280;41148;45.420;10.952;2023-04-22T05:36:05;100628.09;;;12.32;86.39
23427;BME280;41148;45.420;10.952;2023-04-22T05:38:34;100641.88;;;12.45;86.49
23427;BME280;41148;45.420;10.952;2023-04-22T05:41:01;100643.13;;;12.35;86.93
23427;BME280;41148;45.420;10.952;2023-04-22T05:43:29;100647.03;;;12.26;87.88
23427;BME280;41148;45.420;10.952;2023-04-22T05:46:06;100644.06;;;12.33;87.09
23427;BME280;41148;45.420;10.952;2023-04-22T05:48:36;100645.59;;;12.41;85.34
23427;BME280;41148;45.420;10.952;2023-04-22T05:51:07;100644.47;;;12.48;85.58
23427;BME280;41148;45.420;10.952;2023-04-22T05:53:35;100645.19;;;12.51;84.33
23427;BME280;41148;45.420;10.952;2023-04-22T05:56:04;100648.75;;;12.52;83.51
23427;BME280;41148;45.420;10.952;2023-04-22T05:58:32;100654.28;;;12.47;84.68
23427;BME280;41148;45.420;10.952;2023-04-22T06:01:08;100658.81;;;12.45;85.50
23427;BME280;41148;45.420;10.952;2023-04-22T06:03:51;100655.09;;;12.49;84.47
23427;BME280;41148;45.420;10.952;2023-04-22T06:06:19;100654.09;;;12.52;84.34
23427;BME280;41148;45.420;10.952;2023-04-22T06:08:47;100658.09;;;12.64;83.40
23427;BME280;41148;45.420;10.952;2023-04-22T06:11:14;100647.19;;;12.70;82.75
23427;BME280;41148;45.420;10.952;2023-04-22T06:13:42;100662.09;;;12.77;82.38
23427;BME280;41148;45.420;10.952;2023-04-22T06:16:10;100665.28;;;12.86;81.94
23427;BME280;41148;45.420;10.952;2023-04-22T06:18:37;100657.34;;;12.85;81.26
23427;BME280;41148;45.420;10.952;2023-04-22T06:21:11;100659.59;;;12.96;80.91
23427;BME280;41148;45.420;10.952;2023-04-22T06:23:39;100664.34;;;13.11;80.76
23427;BME280;41148;45.420;10.952;2023-04-22T06:26:06;100665.84;;;13.18;78.79
23427;BME280;41148;45.420;10.952;2023-04-22T06:28:35;100672.31;;;13.36;77.70
23427;BME280;41148;45.420;10.952;2023-04-22T06:31:08;100667.09;;;13.55;76.66
23427;BME280;41148;45.420;10.952;2023-04-22T06:33:36;100674.63;;;13.67;77.17
23427;BME280;41148;45.420;10.952;2023-04-22T06:36:04;100672.59;;;13.73;76.27
23427;BME280;41148;45.420;10.952;2023-04-22T06:38:33;100680.34;;;13.80;76.48
23427;BME280;41148;45.420;10.952;2023-04-22T06:41:21;100681.44;;;13.96;75.86
23427;BME280;41148;45.420;10.952;2023-04-22T06:43:51;100681.94;;;14.06;75.77
23427;BME280;41148;45.420;10.952;2023-04-22T06:46:37;100683.94;;;14.00;74.25
23427;BME280;41148;45.420;10.952;2023-04-22T06:49:28;100681.16;;;14.24;74.76
23427;BME280;41148;45.420;10.952;2023-04-22T06:52:18;100687.16;;;14.51;72.83
23427;BME280;41148;45.420;10.952;2023-04-22T06:54:52;100684.00;;;14.62;72.45
23427;BME280;41148;45.420;10.952;2023-04-22T06:57:19;100679.75;;;14.76;71.71
23427;BME280;41148;45.420;10.952;2023-04-22T06:59:47;100682.78;;;14.69;71.47
23427;BME280;41148;45.420;10.952;2023-04-22T07:02:15;100675.94;;;14.62;71.94
23427;BME280;41148;45.420;10.952;2023-04-22T07:04:43;100683.19;;;14.99;71.44
23427;BME280;41148;45.420;10.952;2023-04-22T07:07:11;100676.22;;;15.13;70.79
23427;BME280;41148;45.420;10.952;2023-04-22T07:09:39;100679.78;;;15.14;70.34
23427;BME280;41148;45.420;10.952;2023-04-22T07:12:07;100678.38;;;15.26;69.98
23427;BME280;41148;45.420;10.952;2023-04-22T07:14:36;100681.31;;;15.38;69.52
23427;BME280;41148;45.420;10.952;2023-04-22T07:17:03;100679.22;;;15.45;69.20
23427;BME280;41148;45.420;10.952;2023-04-22T07:19:31;100674.47;;;15.50;69.16
23427;BME280;41148;45.420;10.952;2023-04-22T07:22:01;100679.38;;;15.61;68.25
23427;BME280;41148;45.420;10.952;2023-04-22T07:24:29;100668.09;;;15.53;69.66
23427;BME280;41148;45.420;10.952;2023-04-22T07:26:57;100671.81;;;15.69;70.41
23427;BME280;41148;45.420;10.952;2023-04-22T07:29:24;100669.69;;;15.76;69.76
23427;BME280;41148;45.420;10.952;2023-04-22T07:31:52;100674.75;;;15.82;69.89
23427;BME280;41148;45.420;10.952;2023-04-22T07:34:19;100679.75;;;15.89;69.12
23427;BME280;41148;45.420;10.952;2023-04-22T07:36:49;100670.66;;;15.92;68.24
23427;BME280;41148;45.420;10.952;2023-04-22T07:39:17;100680.94;;;16.01;67.03
23427;BME280;41148;45.420;10.952;2023-04-22T07:41:44;100669.81;;;16.26;67.08
23427;BME280;41148;45.420;10.952;2023-04-22T07:44:11;100666.34;;;16.41;66.07
23427;BME280;41148;45.420;10.952;2023-04-22T07:46:43;100673.53;;;16.41;65.49
23427;BME280;41148;45.420;10.952;2023-04-22T07:49:11;100670.84;;;16.41;66.25
23427;BME280;41148;45.420;10.952;2023-04-22T07:51:40;100669.63;;;16.46;67.06
23427;BME280;41148;45.420;10.952;2023-04-22T07:54:07;100679.91;;;16.55;65.72
23427;BME280;41148;45.420;10.952;2023-04-22T07:56:35;100669.78;;;16.60;65.08
23427;BME280;41148;45.420;10.952;2023-04-22T07:59:02;100664.56;;;16.75;64.49
23427;BME280;41148;45.420;10.952;2023-04-22T08:01:30;100666.66;;;16.70;64.81
23427;BME280;41148;45.420;10.952;2023-04-22T08:03:57;100668.41;;;16.86;65.12
23427;BME280;41148;45.420;10.952;2023-04-22T08:06:25;100669.50;;;17.00;64.12
23427;BME280;41148;45.420;10.952;2023-04-22T08:08:54;100659.41;;;17.03;62.83
23427;BME280;41148;45.420;10.952;2023-04-22T08:11:21;100665.34;;;17.10;62.96
23427;BME280;41148;45.420;10.952;2023-04-22T08:13:49;100661.69;;;17.27;62.88
23427;BME280;41148;45.420;10.952;2023-04-22T08:16:16;100665.03;;;17.48;61.75
23427;BME280;41148;45.420;10.952;2023-04-22T08:18:44;100663.25;;;17.46;62.05
23427;BME280;41148;45.420;10.952;2023-04-22T08:21:12;100665.75;;;17.65;61.42
23427;BME280;41148;45.420;10.952;2023-04-22T08:23:40;100664.13;;;17.63;60.78
23427;BME280;41148;45.420;10.952;2023-04-22T08:26:07;100671.53;;;17.59;61.68
23427;BME280;41148;45.420;10.952;2023-04-22T08:28:36;100669.78;;;17.58;61.27
23427;BME280;41148;45.420;10.952;2023-04-22T08:31:03;100663.16;;;17.64;61.33
23427;BME280;41148;45.420;10.952;2023-04-22T08:33:32;100665.00;;;17.63;61.01
23427;BME280;41148;45.420;10.952;2023-04-22T08:35:59;100663.38;;;17.77;60.75
23427;BME280;41148;45.420;10.952;2023-04-22T08:38:27;100666.41;;;17.86;60.73
23427;BME280;41148;45.420;10.952;2023-04-22T08:40:55;100666.53;;;17.99;61.81
23427;BME280;41148;45.420;10.952;2023-04-22T08:43:24;100670.84;;;18.17;59.82
23427;BME280;41148;45.420;10.952;2023-04-22T08:45:52;100669.75;;;18.50;57.96
23427;BME280;41148;45.420;10.952;2023-04-22T08:48:20;100666.34;;;18.76;56.81
23427;BME280;41148;45.420;10.952;2023-04-22T08:50:48;100664.22;;;18.81;57.71
23427;BME280;41148;45.420;10.952;2023-04-22T08:53:16;100660.56;;;18.97;58.72
23427;BME280;41148;45.420;10.952;2023-04-22T08:55:44;100662.78;;;19.04;57.27
23427;BME280;41148;45.420;10.952;2023-04-22T08:58:12;100665.88;;;19.12;56.34
23427;BME280;41148;45.420;10.952;2023-04-22T09:00:42;100653.97;;;19.43;54.73
23427;BME280;41148;45.420;10.952;2023-04-22T09:03:10;100657.50;;;19.58;53.76
23427;BME280;41148;45.420;10.952;2023-04-22T09:05:39;100657.75;;;19.68;53.34
23427;BME280;41148;45.420;10.952;2023-04-22T09:08:08;100653.75;;;19.61;53.60
23427;BME280;41148;45.420;10.952;2023-04-22T09:10:37;100649.25;;;20.14;50.69
23427;BME280;41148;45.420;10.952;2023-04-22T09:13:05;100654.00;;;20.63;50.14
23427;BME280;41148;45.420;10.952;2023-04-22T09:15:34;100649.28;;;20.66;49.12
23427;BME280;41148;45.420;10.952;2023-04-22T09:18:02;100640.31;;;20.26;48.88
23427;BME280;41148;45.420;10.952;2023-04-22T09:20:30;100638.56;;;20.12;49.47
23427;BME280;41148;45.420;10.952;2023-04-22T09:23:01;100642.66;;;20.57;47.81
23427;BME280;41148;45.420;10.952;2023-04-22T09:25:32;100636.22;;;21.09;45.49
23427;BME280;41148;45.420;10.952;2023-04-22T09:28:00;100640.88;;;21.33;45.72
23427;BME280;41148;45.420;10.952;2023-04-22T09:30:31;100645.63;;;21.17;45.73
23427;BME280;41148;45.420;10.952;2023-04-22T09:33:01;100632.81;;;20.56;47.12
23427;BME280;41148;45.420;10.952;2023-04-22T09:35:35;100632.28;;;20.24;48.10
23427;BME280;41148;45.420;10.952;2023-04-22T09:41:12;100625.44;;;20.06;48.98
23427;BME280;41148;45.420;10.952;2023-04-22T09:43:40;100629.81;;;20.09;48.86
23427;BME280;41148;45.420;10.952;2023-04-22T09:46:09;100627.56;;;20.28;48.11
23427;BME280;41148;45.420;10.952;2023-04-22T09:48:42;100630.78;;;20.08;48.16
23427;BME280;41148;45.420;10.952;2023-04-22T09:51:16;100622.81;;;19.79;48.97
23427;BME280;41148;45.420;10.952;2023-04-22T09:53:44;100625.69;;;19.76;50.19
23427;BME280;41148;45.420;10.952;2023-04-22T09:56:12;100627.97;;;19.69;50.07
23427;BME280;41148;45.420;10.952;2023-04-22T09:58:41;100617.78;;;19.73;50.75
23427;BME280;41148;45.420;10.952;2023-04-22T10:01:09;100616.59;;;19.77;50.25
23427;BME280;41148;45.420;10.952;2023-04-22T10:03:37;100615.22;;;19.84;50.53
23427;BME280;41148;45.420;10.952;2023-04-22T10:06:05;100610.69;;;19.85;49.87
23427;BME280;41148;45.420;10.952;2023-04-22T10:08:34;100616.19;;;19.83;50.04
23427;BME280;41148;45.420;10.952;2023-04-22T10:11:01;100617.06;;;19.84;50.50
23427;BME280;41148;45.420;10.952;2023-04-22T10:13:29;100616.66;;;19.90;50.07
23427;BME280;41148;45.420;10.952;2023-04-22T10:15:56;100620.13;;;19.92;49.60
23427;BME280;41148;45.420;10.952;2023-04-22T10:18:27;100618.19;;;19.94;49.27
23427;BME280;41148;45.420;10.952;2023-04-22T10:20:56;100609.81;;;19.84;48.96
23427;BME280;41148;45.420;10.952;2023-04-22T10:23:24;100612.22;;;19.89;49.49
23427;BME280;41148;45.420;10.952;2023-04-22T10:25:53;100618.78;;;19.72;49.22
23427;BME280;41148;45.420;10.952;2023-04-22T10:28:22;100621.91;;;19.52;48.45
23427;BME280;41148;45.420;10.952;2023-04-22T10:30:50;100610.69;;;19.58;49.57
23427;BME280;41148;45.420;10.952;2023-04-22T10:36:05;100600.94;;;19.55;49.22
23427;BME280;41148;45.420;10.952;2023-04-22T10:38:41;100603.38;;;19.60;49.21
23427;BME280;41148;45.420;10.952;2023-04-22T10:41:28;100597.66;;;19.64;48.92
23427;BME280;41148;45.420;10.952;2023-04-22T10:43:58;100586.66;;;19.53;49.93
23427;BME280;41148;45.420;10.952;2023-04-22T10:49:00;100598.53;;;19.65;50.00
23427;BME280;41148;45.420;10.952;2023-04-22T10:51:46;100593.25;;;19.76;50.06
23427;BME280;41148;45.420;10.952;2023-04-22T10:57:09;100584.91;;;19.66;49.72
23427;BME280;41148;45.420;10.952;2023-04-22T10:59:57;100579.44;;;19.81;49.51
23427;BME280;41148;45.420;10.952;2023-04-22T11:02:26;100588.03;;;20.00;49.80
23427;BME280;41148;45.420;10.952;2023-04-22T11:05:23;100583.25;;;20.04;47.92
23427;BME280;41148;45.420;10.952;2023-04-22T11:07:54;100580.84;;;19.86;48.84
23427;BME280;41148;45.420;10.952;2023-04-22T11:10:38;100581.63;;;19.88;49.32
23427;BME280;41148;45.420;10.952;2023-04-22T11:13:16;100571.56;;;19.90;47.85
23427;BME280;41148;45.420;10.952;2023-04-22T11:15:46;100574.69;;;19.97;47.22
23427;BME280;41148;45.420;10.952;2023-04-22T11:18:17;100570.53;;;20.18;46.88
23427;BME280;41148;45.420;10.952;2023-04-22T11:20:46;100569.56;;;20.19;47.33
23427;BME280;41148;45.420;10.952;2023-04-22T11:23:20;100559.69;;;20.31;47.60
23427;BME280;41148;45.420;10.952;2023-04-22T11:25:52;100566.53;;;20.37;46.14
23427;BME280;41148;45.420;10.952;2023-04-22T11:28:20;100566.88;;;20.45;44.74
23427;BME280;41148;45.420;10.952;2023-04-22T11:30:49;100564.03;;;20.21;46.85
23427;BME280;41148;45.420;10.952;2023-04-22T11:33:18;100544.88;;;20.37;46.23
23427;BME280;41148;45.420;10.952;2023-04-22T11:35:48;100564.72;;;20.50;46.69
23427;BME280;41148;45.420;10.952;2023-04-22T11:38:18;100573.00;;;20.72;46.93
23427;BME280;41148;45.420;10.952;2023-04-22T11:40:45;100560.75;;;20.92;45.66
23427;BME280;41148;45.420;10.952;2023-04-22T11:43:14;100548.97;;;20.80;44.64
23427;BME280;41148;45.420;10.952;2023-04-22T11:45:42;100558.03;;;20.92;43.58
23427;BME280;41148;45.420;10.952;2023-04-22T11:48:10;100548.56;;;20.61;44.47
23427;BME280;41148;45.420;10.952;2023-04-22T11:50:39;100551.72;;;20.68;44.61
23427;BME280;41148;45.420;10.952;2023-04-22T11:53:17;100551.72;;;20.68;44.46
23427;BME280;41148;45.420;10.952;2023-04-22T11:55:46;100553.94;;;20.86;43.17
23427;BME280;41148;45.420;10.952;2023-04-22T11:58:16;100547.34;;;20.78;44.78
23427;BME280;41148;45.420;10.952;2023-04-22T12:00:49;100547.88;;;20.83;45.92
23427;BME280;41148;45.420;10.952;2023-04-22T12:03:24;100536.72;;;20.75;45.92
23427;BME280;41148;45.420;10.952;2023-04-22T12:08:24;100532.56;;;20.58;44.68
23427;BME280;41148;45.420;10.952;2023-04-22T12:10:55;100520.97;;;20.56;46.39
23427;BME280;41148;45.420;10.952;2023-04-22T12:13:30;100534.59;;;20.67;46.55
23427;BME280;41148;45.420;10.952;2023-04-22T12:16:01;100526.88;;;20.74;46.18
23427;BME280;41148;45.420;10.952;2023-04-22T12:21:09;100522.31;;;20.74;45.28
23427;BME280;41148;45.420;10.952;2023-04-22T12:24:01;100528.16;;;20.81;46.60
23427;BME280;41148;45.420;10.952;2023-04-22T12:26:31;100513.94;;;20.66;44.70
23427;BME280;41148;45.420;10.952;2023-04-22T12:28:59;100521.63;;;20.60;45.86
23427;BME280;41148;45.420;10.952;2023-04-22T12:31:26;100532.59;;;20.95;46.62
23427;BME280;41148;45.420;10.952;2023-04-22T12:33:55;100534.72;;;21.02;47.69
23427;BME280;41148;45.420;10.952;2023-04-22T12:36:22;100528.31;;;21.03;47.51
23427;BME280;41148;45.420;10.952;2023-04-22T12:38:51;100517.28;;;21.06;47.00
23427;BME280;41148;45.420;10.952;2023-04-22T12:41:19;100519.25;;;21.04;47.20
23427;BME280;41148;45.420;10.952;2023-04-22T12:43:46;100517.16;;;20.71;47.56
23427;BME280;41148;45.420;10.952;2023-04-22T12:46:14;100513.50;;;20.60;48.95
23427;BME280;41148;45.420;10.952;2023-04-22T12:48:41;100515.84;;;20.64;49.23
23427;BME280;41148;45.420;10.952;2023-04-22T12:51:09;100519.38;;;20.90;46.97
23427;BME280;41148;45.420;10.952;2023-04-22T12:53:36;100507.78;;;20.88;47.00
23427;BME280;41148;45.420;10.952;2023-04-22T12:56:04;100497.09;;;20.74;48.10
23427;BME280;41148;45.420;10.952;2023-04-22T12:58:32;100513.56;;;20.71;47.69
23427;BME280;41148;45.420;10.952;2023-04-22T13:00:59;100498.97;;;20.61;48.24
23427;BME280;41148;45.420;10.952;2023-04-22T13:03:26;100496.44;;;20.46;49.27
23427;BME280;41148;45.420;10.952;2023-04-22T13:05:54;100500.47;;;20.65;50.22
23427;BME280;41148;45.420;10.952;2023-04-22T13:08:22;100487.41;;;20.58;50.12